createdAt,value
2023-04-09T00:05:43.033Z,77.30
2023-04-09T00:08:11.118Z,77.30
2023-04-09T00:10:39.160Z,77.30
2023-04-09T00:13:07.258Z,77.30
2023-04-09T00:15:35.393Z,77.30
2023-04-09T00:18:03.501Z,77.30
2023-04-09T00:20:31.619Z,77.30
2023-04-09T00:23:01.425Z,77.30
2023-04-09T00:25:29.783Z,77.30
2023-04-09T00:27:57.836Z,77.20
2023-04-09T00:30:26.010Z,77.20
2023-04-09T00:32:54.114Z,77.20
2023-04-09T00:35:22.309Z,77.20
2023-04-09T00:37:53.150Z,77.20
2023-04-09T00:40:22.584Z,77.20
2023-04-09T00:42:50.673Z,77.20
2023-04-09T00:47:47.088Z,77.10
2023-04-09T00:50:15.708Z,77.10
2023-04-09T00:52:43.936Z,77.10
2023-04-09T00:55:12.197Z,77.10
2023-04-09T00:57:41.687Z,77.10
2023-04-09T01:00:11.474Z,77.10
2023-04-09T01:02:39.747Z,77.10
2023-04-09T01:05:08.450Z,77.10
2023-04-09T01:07:43.030Z,77.00
2023-04-09T01:10:17.816Z,77.00
2023-04-09T01:12:53.084Z,77.00
2023-04-09T01:15:23.796Z,77.00
2023-04-09T01:17:54.154Z,77.00
2023-04-09T01:20:24.375Z,76.90
2023-04-09T01:22:58.899Z,76.90
2023-04-09T01:25:34.693Z,76.90
2023-04-09T01:28:19.877Z,76.90
2023-04-09T01:30:50.802Z,76.90
2023-04-09T01:33:19.593Z,76.90
2023-04-09T01:35:48.241Z,76.90
2023-04-09T01:38:16.404Z,76.90
2023-04-09T01:40:44.502Z,76.80
2023-04-09T01:43:12.554Z,76.80
2023-04-09T01:45:44.426Z,76.80
2023-04-09T01:48:12.731Z,76.80
2023-04-09T01:50:40.909Z,76.80
2023-04-09T01:53:08.945Z,76.70
2023-04-09T01:55:36.977Z,76.80
2023-04-09T01:58:05.076Z,76.70
2023-04-09T02:00:35.500Z,76.70
2023-04-09T02:03:08.145Z,76.70
2023-04-09T02:05:45.829Z,76.60
2023-04-09T02:08:14.474Z,76.60
2023-04-09T02:10:42.562Z,76.50
2023-04-09T02:13:11.187Z,76.60
2023-04-09T02:15:39.271Z,76.60
2023-04-09T02:18:24.512Z,76.50
2023-04-09T02:20:53.558Z,76.30
2023-04-09T02:23:22.028Z,76.40
2023-04-09T02:25:50.098Z,76.50
2023-04-09T02:28:18.145Z,76.50
2023-04-09T02:30:46.231Z,76.50
2023-04-09T02:33:14.390Z,76.50
2023-04-09T02:35:43.889Z,76.50
2023-04-09T02:38:13.939Z,76.50
2023-04-09T02:40:42.256Z,76.50
2023-04-09T02:43:10.275Z,76.40
2023-04-09T02:45:38.369Z,76.40
2023-04-09T02:48:06.755Z,76.40
2023-04-09T02:50:34.835Z,76.40
2023-04-09T02:53:04.507Z,76.40
2023-04-09T02:55:32.820Z,76.40
2023-04-09T02:58:00.888Z,76.30
2023-04-09T03:00:28.969Z,76.30
2023-04-09T03:02:58.102Z,76.40
2023-04-09T03:05:26.430Z,76.30
2023-04-09T03:07:55.172Z,76.30
2023-04-09T03:10:24.539Z,76.30
2023-04-09T03:12:52.629Z,76.30
2023-04-09T03:15:20.915Z,76.30
2023-04-09T03:17:49.018Z,76.20
2023-04-09T03:20:17.181Z,76.20
2023-04-09T03:22:45.224Z,76.20
2023-04-09T03:25:13.298Z,76.20
2023-04-09T03:27:42.699Z,76.20
2023-04-09T03:30:11.780Z,76.10
2023-04-09T03:32:39.894Z,76.10
2023-04-09T03:35:08.563Z,76.10
2023-04-09T03:40:05.724Z,76.00
2023-04-09T03:42:35.060Z,76.00
2023-04-09T03:45:05.035Z,76.00
2023-04-09T03:47:33.912Z,76.00
2023-04-09T03:52:30.405Z,76.00
2023-04-09T03:54:58.462Z,75.90
2023-04-09T03:57:26.481Z,75.90
2023-04-09T03:59:54.615Z,75.90
2023-04-09T04:02:27.004Z,75.90
2023-04-09T04:07:23.692Z,75.40
2023-04-09T04:09:51.749Z,75.40
2023-04-09T04:12:19.802Z,75.40
2023-04-09T04:14:47.857Z,75.20
2023-04-09T04:17:15.947Z,75.10
2023-04-09T04:19:45.452Z,74.80
2023-04-09T04:22:13.519Z,74.50
2023-04-09T04:24:41.557Z,74.40
2023-04-09T04:27:09.702Z,74.20
2023-04-09T04:29:38.941Z,74.10
2023-04-09T04:32:07.381Z,73.90
2023-04-09T04:34:35.462Z,73.80
2023-04-09T04:37:04.882Z,73.60
2023-04-09T04:39:32.956Z,73.60
2023-04-09T04:42:01.331Z,73.40
2023-04-09T04:44:29.405Z,73.30
2023-04-09T04:46:57.451Z,73.30
2023-04-09T04:49:25.647Z,73.20
2023-04-09T04:51:53.673Z,73.10
2023-04-09T04:54:23.120Z,73.10
2023-04-09T04:56:51.182Z,73.10
2023-04-09T04:59:19.231Z,73.00
2023-04-09T05:01:47.356Z,73.10
2023-04-09T05:04:15.514Z,73.20
2023-04-09T05:06:43.625Z,73.00
2023-04-09T05:09:11.696Z,72.80
2023-04-09T05:11:41.124Z,72.80
2023-04-09T05:14:09.185Z,72.90
2023-04-09T05:16:37.557Z,72.80
2023-04-09T05:19:05.696Z,72.80
2023-04-09T05:21:33.771Z,72.90
2023-04-09T05:24:01.872Z,72.80
2023-04-09T05:26:29.944Z,72.70
2023-04-09T05:28:59.395Z,72.70
2023-04-09T05:31:27.477Z,72.70
2023-04-09T05:33:55.595Z,72.70
2023-04-09T05:36:23.656Z,72.50
2023-04-09T05:38:52.159Z,72.60
2023-04-09T05:41:20.546Z,72.60
2023-04-09T05:43:48.657Z,72.50
2023-04-09T05:46:18.109Z,72.60
2023-04-09T05:48:46.232Z,72.50
2023-04-09T05:51:15.557Z,72.50
2023-04-09T05:53:48.226Z,72.30
2023-04-09T05:56:16.612Z,72.40
2023-04-09T05:58:44.874Z,72.30
2023-04-09T06:01:12.963Z,72.10
2023-04-09T06:03:42.488Z,72.10
2023-04-09T06:06:10.628Z,72.30
2023-04-09T06:08:38.694Z,72.20
2023-04-09T06:11:10.467Z,72.10
2023-04-09T06:13:42.245Z,72.30
2023-04-09T06:16:12.275Z,72.20
2023-04-09T06:18:40.368Z,72.10
2023-04-09T06:21:10.141Z,72.20
2023-04-09T06:23:38.271Z,72.30
2023-04-09T06:26:06.469Z,72.20
2023-04-09T06:28:34.524Z,72.00
2023-04-09T06:31:02.651Z,72.00
2023-04-09T06:33:30.811Z,72.10
2023-04-09T06:35:58.941Z,71.50
2023-04-09T06:38:28.421Z,71.60
2023-04-09T06:40:57.724Z,71.90
2023-04-09T06:43:30.683Z,71.90
2023-04-09T06:45:58.751Z,71.60
2023-04-09T06:48:26.793Z,71.80
2023-04-09T06:50:54.937Z,71.80
2023-04-09T06:53:23.037Z,71.60
2023-04-09T06:55:52.787Z,71.50
2023-04-09T06:58:21.207Z,71.80
2023-04-09T07:00:49.284Z,71.70
2023-04-09T07:03:18.512Z,71.70
2023-04-09T07:05:47.353Z,71.80
2023-04-09T07:08:15.410Z,71.80
2023-04-09T07:10:43.463Z,71.90
2023-04-09T07:13:12.876Z,71.30
2023-04-09T07:15:42.513Z,71.60
2023-04-09T07:18:10.836Z,71.60
2023-04-09T07:20:38.934Z,71.50
2023-04-09T07:23:06.991Z,71.30
2023-04-09T07:25:35.180Z,71.40
2023-04-09T07:28:03.207Z,71.50
2023-04-09T07:30:33.003Z,71.30
2023-04-09T07:33:01.147Z,71.30
2023-04-09T07:35:29.247Z,71.60
2023-04-09T07:37:57.348Z,71.60
2023-04-09T07:40:25.408Z,71.20
2023-04-09T07:42:55.672Z,71.30
2023-04-09T07:45:23.813Z,71.30
2023-04-09T07:47:53.236Z,71.40
2023-04-09T07:50:21.409Z,71.10
2023-04-09T07:52:49.515Z,71.20
2023-04-09T07:55:18.611Z,71.40
2023-04-09T07:57:46.723Z,71.20
2023-04-09T08:00:15.718Z,71.30
2023-04-09T08:02:44.562Z,71.50
2023-04-09T08:05:14.280Z,71.50
2023-04-09T08:07:42.390Z,71.60
2023-04-09T08:10:15.171Z,72.20
2023-04-09T08:12:43.376Z,72.70
2023-04-09T08:15:12.007Z,73.00
2023-04-09T08:17:40.162Z,73.20
2023-04-09T08:20:09.395Z,73.40
2023-04-09T08:22:38.855Z,73.60
2023-04-09T08:25:08.006Z,73.60
2023-04-09T08:27:37.084Z,73.60
2023-04-09T08:30:05.642Z,73.80
2023-04-09T08:32:33.864Z,73.90
2023-04-09T08:35:01.947Z,73.90
2023-04-09T08:37:30.040Z,74.00
2023-04-09T08:39:59.514Z,74.10
2023-04-09T08:42:27.582Z,74.10
2023-04-09T08:44:55.626Z,74.20
2023-04-09T08:47:23.749Z,74.20
2023-04-09T08:49:51.892Z,74.20
2023-04-09T08:52:22.049Z,74.20
2023-04-09T08:54:50.650Z,74.30
2023-04-09T08:57:20.118Z,74.30
2023-04-09T08:59:48.171Z,74.30
2023-04-09T09:02:16.307Z,74.30
2023-04-09T09:04:47.966Z,74.30
2023-04-09T09:07:16.155Z,74.40
2023-04-09T09:09:54.330Z,74.40
2023-04-09T09:12:34.945Z,74.30
2023-04-09T09:15:03.239Z,74.30
2023-04-09T09:17:36.864Z,74.30
2023-04-09T09:20:19.986Z,74.30
2023-04-09T09:22:55.045Z,74.30
2023-04-09T09:25:25.604Z,74.40
2023-04-09T09:27:55.414Z,74.30
2023-04-09T09:30:23.895Z,74.30
2023-04-09T09:32:54.143Z,74.30
2023-04-09T09:35:22.485Z,74.30
2023-04-09T09:38:04.574Z,74.30
2023-04-09T09:40:32.741Z,74.20
2023-04-09T09:43:02.190Z,74.20
2023-04-09T09:45:30.297Z,74.20
2023-04-09T09:47:58.372Z,74.10
2023-04-09T09:50:27.093Z,74.10
2023-04-09T09:52:59.197Z,74.20
2023-04-09T09:55:27.906Z,74.10
2023-04-09T09:57:55.957Z,74.00
2023-04-09T10:00:25.627Z,73.90
2023-04-09T10:02:57.851Z,73.90
2023-04-09T10:05:30.683Z,73.80
2023-04-09T10:07:59.044Z,73.70
2023-04-09T10:10:27.292Z,73.60
2023-04-09T10:12:56.249Z,73.60
2023-04-09T10:15:25.664Z,73.60
2023-04-09T10:17:53.757Z,73.60
2023-04-09T10:20:26.110Z,73.50
2023-04-09T10:22:54.210Z,73.50
2023-04-09T10:25:24.474Z,73.50
2023-04-09T10:28:01.211Z,73.40
2023-04-09T10:30:37.313Z,73.50
2023-04-09T10:33:12.229Z,73.40
2023-04-09T10:35:40.324Z,73.40
2023-04-09T10:38:11.426Z,73.30
2023-04-09T10:40:43.050Z,73.30
2023-04-09T10:43:11.118Z,73.30
2023-04-09T10:45:43.638Z,73.30
2023-04-09T10:48:18.489Z,73.30
2023-04-09T10:50:46.686Z,73.20
2023-04-09T10:53:24.803Z,73.20
2023-04-09T10:55:53.743Z,73.20
2023-04-09T10:58:21.863Z,73.20
2023-04-09T11:00:52.350Z,73.10
2023-04-09T11:03:24.931Z,73.10
2023-04-09T11:06:01.279Z,73.10
2023-04-09T11:08:32.722Z,73.10
2023-04-09T11:11:01.771Z,73.10
2023-04-09T11:13:30.760Z,73.10
2023-04-09T11:16:01.428Z,73.10
2023-04-09T11:18:30.360Z,73.10
2023-04-09T11:20:59.243Z,73.10
2023-04-09T11:23:27.354Z,73.10
2023-04-09T11:25:55.488Z,73.10
2023-04-09T11:28:24.363Z,73.20
2023-04-09T11:30:52.569Z,73.20
2023-04-09T11:33:22.473Z,73.20
2023-04-09T11:35:50.528Z,73.20
2023-04-09T11:38:18.582Z,73.10
2023-04-09T11:40:49.311Z,73.10
2023-04-09T11:43:18.147Z,73.10
2023-04-09T11:45:48.255Z,73.10
2023-04-09T11:48:19.328Z,73.20
2023-04-09T11:50:48.775Z,73.20
2023-04-09T11:53:19.710Z,73.20
2023-04-09T11:55:48.957Z,73.20
2023-04-09T11:58:17.436Z,73.20
2023-04-09T12:00:45.484Z,73.20
2023-04-09T12:03:16.286Z,73.20
2023-04-09T12:05:51.338Z,73.10
2023-04-09T12:08:23.608Z,73.10
2023-04-09T12:10:53.335Z,73.10
2023-04-09T12:13:22.040Z,73.10
2023-04-09T12:15:50.481Z,73.10
2023-04-09T12:18:24.546Z,73.10
2023-04-09T12:20:53.963Z,73.20
2023-04-09T12:23:24.536Z,73.10
2023-04-09T12:25:55.313Z,73.10
2023-04-09T12:28:23.383Z,73.10
2023-04-09T12:30:52.077Z,73.10
2023-04-09T12:33:20.143Z,73.20
2023-04-09T12:35:48.238Z,73.10
2023-04-09T12:38:17.712Z,73.20
2023-04-09T12:40:46.310Z,73.20
2023-04-09T12:43:14.408Z,73.20
2023-04-09T12:45:42.505Z,73.10
2023-04-09T12:48:10.761Z,73.10
2023-04-09T12:50:38.786Z,73.10
2023-04-09T12:53:06.819Z,73.10
2023-04-09T12:55:36.233Z,73.10
2023-04-09T12:58:04.320Z,73.10
2023-04-09T13:00:33.491Z,73.20
2023-04-09T13:03:01.856Z,73.20
2023-04-09T13:05:31.517Z,73.20
2023-04-09T13:07:59.606Z,73.30
2023-04-09T13:10:27.871Z,73.30
2023-04-09T13:12:57.307Z,73.30
2023-04-09T13:15:25.354Z,73.30
2023-04-09T13:17:53.446Z,73.30
2023-04-09T13:20:21.918Z,73.30
2023-04-09T13:22:51.014Z,73.20
2023-04-09T13:25:19.132Z,73.20
2023-04-09T13:27:48.551Z,73.20
2023-04-09T13:30:18.037Z,73.20
2023-04-09T13:32:46.162Z,73.20
2023-04-09T13:35:14.242Z,73.20
2023-04-09T13:37:42.301Z,73.20
2023-04-09T13:40:11.103Z,73.20
2023-04-09T13:42:39.175Z,73.20
2023-04-09T13:45:08.241Z,73.20
2023-04-09T13:47:37.916Z,73.20
2023-04-09T13:50:07.452Z,73.30
2023-04-09T13:52:35.491Z,73.30
2023-04-09T13:55:04.020Z,73.30
2023-04-09T13:57:32.057Z,73.30
2023-04-09T14:00:02.557Z,73.30
2023-04-09T14:02:30.783Z,73.30
2023-04-09T14:05:00.406Z,73.30
2023-04-09T14:07:28.472Z,73.30
2023-04-09T14:09:56.536Z,73.40
2023-04-09T14:12:24.582Z,73.40
2023-04-09T14:14:52.961Z,73.40
2023-04-09T14:17:21.036Z,73.40
2023-04-09T14:19:49.099Z,73.60
2023-04-09T14:22:18.526Z,73.80
2023-04-09T14:24:46.704Z,73.80
2023-04-09T14:27:14.823Z,73.80
2023-04-09T14:29:42.897Z,73.90
2023-04-09T14:32:11.108Z,73.80
2023-04-09T14:34:39.193Z,73.90
2023-04-09T14:37:07.249Z,73.90
2023-04-09T14:39:36.723Z,73.90
2023-04-09T14:42:04.982Z,74.00
2023-04-09T14:44:33.224Z,74.00
2023-04-09T14:47:01.332Z,74.00
2023-04-09T14:49:29.441Z,74.00
2023-04-09T14:51:57.640Z,74.00
2023-04-09T14:54:25.795Z,74.00
2023-04-09T14:56:57.160Z,74.10
2023-04-09T14:59:25.725Z,74.10
2023-04-09T15:01:54.736Z,74.20
2023-04-09T15:04:23.589Z,74.20
2023-04-09T15:06:52.231Z,74.20
2023-04-09T15:09:30.878Z,74.20
2023-04-09T15:12:01.488Z,74.30
2023-04-09T15:14:30.655Z,74.30
2023-04-09T15:17:00.827Z,74.40
2023-04-09T15:19:29.096Z,74.40
2023-04-09T15:21:57.430Z,74.50
2023-04-09T15:24:25.512Z,74.50
2023-04-09T15:26:53.572Z,74.60
2023-04-09T15:29:23.002Z,74.60
2023-04-09T15:31:51.462Z,74.40
2023-04-09T15:34:19.512Z,74.30
2023-04-09T15:36:47.549Z,74.20
2023-04-09T15:39:16.038Z,74.20
2023-04-09T15:41:44.091Z,74.10
2023-04-09T15:44:12.161Z,74.10
2023-04-09T15:46:41.633Z,74.00
2023-04-09T15:49:09.739Z,74.00
2023-04-09T15:51:37.828Z,74.00
2023-04-09T15:54:05.971Z,74.00
2023-04-09T15:56:36.215Z,74.00
2023-04-09T15:59:05.429Z,74.00
2023-04-09T16:01:44.311Z,74.00
2023-04-09T16:04:12.386Z,74.00
2023-04-09T16:06:40.485Z,74.10
2023-04-09T16:09:08.547Z,74.10
2023-04-09T16:11:37.519Z,74.10
2023-04-09T16:14:05.776Z,74.10
2023-04-09T16:16:33.926Z,74.00
2023-04-09T16:19:03.382Z,74.00
2023-04-09T16:21:32.279Z,74.00
2023-04-09T16:24:01.342Z,74.00
2023-04-09T16:26:29.671Z,74.00
2023-04-09T16:28:59.922Z,73.90
2023-04-09T16:31:31.051Z,73.90
2023-04-09T16:33:59.050Z,74.00
2023-04-09T16:36:28.537Z,74.00
2023-04-09T16:38:56.595Z,74.00
2023-04-09T16:41:24.662Z,73.90
2023-04-09T16:43:52.726Z,73.90
2023-04-09T16:46:20.804Z,73.90
2023-04-09T16:48:48.882Z,73.90
2023-04-09T16:51:18.291Z,73.90
2023-04-09T16:53:47.753Z,73.90
2023-04-09T16:56:15.909Z,73.90
2023-04-09T16:58:44.013Z,73.90
2023-04-09T17:01:12.151Z,73.80
2023-04-09T17:03:40.439Z,73.60
2023-04-09T17:06:08.662Z,73.40
2023-04-09T17:08:36.750Z,73.30
2023-04-09T17:11:06.722Z,73.40
2023-04-09T17:13:35.794Z,73.60
2023-04-09T17:16:07.549Z,73.60
2023-04-09T17:18:36.823Z,73.60
2023-04-09T17:21:05.244Z,73.60
2023-04-09T17:23:33.300Z,73.60
2023-04-09T17:26:08.406Z,73.60
2023-04-09T17:28:36.460Z,73.40
2023-04-09T17:31:04.620Z,73.40
2023-04-09T17:33:32.762Z,73.40
2023-04-09T17:36:01.539Z,73.30
2023-04-09T17:38:30.875Z,73.30
2023-04-09T17:40:58.980Z,73.30
2023-04-09T17:43:28.455Z,73.40
2023-04-09T17:45:56.698Z,73.40
2023-04-09T17:48:24.827Z,73.40
2023-04-09T17:50:52.906Z,73.20
2023-04-09T17:53:22.011Z,73.10
2023-04-09T17:55:51.020Z,73.30
2023-04-09T17:58:19.148Z,73.10
2023-04-09T18:00:48.855Z,73.20
2023-04-09T18:03:18.016Z,73.00
2023-04-09T18:05:46.505Z,72.90
2023-04-09T18:08:14.705Z,72.90
2023-04-09T18:10:43.183Z,72.70
2023-04-09T18:13:11.222Z,72.80
2023-04-09T18:15:39.338Z,72.60
2023-04-09T18:18:08.868Z,72.70
2023-04-09T18:20:36.904Z,72.60
2023-04-09T18:23:04.975Z,72.40
2023-04-09T18:25:33.010Z,72.30
2023-04-09T18:28:01.108Z,72.20
2023-04-09T18:30:29.178Z,72.10
2023-04-09T18:32:57.332Z,72.20
2023-04-09T18:35:26.977Z,72.20
2023-04-09T18:37:55.083Z,72.20
2023-04-09T18:40:23.142Z,72.10
2023-04-09T18:42:52.435Z,72.10
2023-04-09T18:45:20.626Z,72.10
2023-04-09T18:47:48.750Z,72.10
2023-04-09T18:50:18.616Z,72.00
2023-04-09T18:52:48.084Z,72.10
2023-04-09T18:55:16.866Z,72.00
2023-04-09T18:57:45.135Z,72.10
2023-04-09T19:00:14.032Z,72.10
2023-04-09T19:02:42.929Z,72.00
2023-04-09T19:05:11.285Z,72.00
2023-04-09T19:07:39.493Z,72.00
2023-04-09T19:10:09.712Z,72.00
2023-04-09T19:12:38.297Z,72.00
2023-04-09T19:15:06.977Z,72.10
2023-04-09T19:17:35.116Z,72.00
2023-04-09T19:20:03.219Z,72.00
2023-04-09T19:22:31.308Z,72.00
2023-04-09T19:24:59.372Z,72.00
2023-04-09T19:27:28.823Z,72.00
2023-04-09T19:29:58.801Z,71.80
2023-04-09T19:32:26.946Z,72.00
2023-04-09T19:34:55.009Z,71.80
2023-04-09T19:37:27.251Z,71.80
2023-04-09T19:39:55.503Z,71.80
2023-04-09T19:42:23.630Z,71.80
2023-04-09T19:44:53.083Z,71.80
2023-04-09T19:47:21.154Z,71.80
2023-04-09T19:49:49.275Z,71.80
2023-04-09T19:52:17.294Z,71.80
2023-04-09T19:54:45.360Z,71.60
2023-04-09T19:57:13.449Z,71.80
2023-04-09T19:59:41.855Z,71.80
2023-04-09T20:02:11.393Z,71.80
2023-04-09T20:04:40.440Z,71.80
2023-04-09T20:07:08.500Z,71.60
2023-04-09T20:09:41.292Z,71.60
2023-04-09T20:12:09.993Z,71.60
2023-04-09T20:14:39.486Z,71.50
2023-04-09T20:17:08.932Z,71.50
2023-04-09T20:19:38.722Z,71.50
2023-04-09T20:22:06.760Z,71.40
2023-04-09T20:24:35.430Z,71.50
2023-04-09T20:27:03.891Z,71.50
2023-04-09T20:29:32.007Z,71.40
2023-04-09T20:32:00.164Z,71.50
2023-04-09T20:34:28.290Z,71.40
2023-04-09T20:36:57.735Z,71.40
2023-04-09T20:39:26.921Z,71.40
2023-04-09T20:41:55.133Z,71.30
2023-04-09T20:44:23.195Z,71.30
2023-04-09T20:46:52.012Z,71.30
2023-04-09T20:49:20.283Z,71.20
2023-04-09T20:51:48.375Z,71.20
2023-04-09T20:54:18.128Z,71.20
2023-04-09T20:56:46.169Z,71.20
2023-04-09T20:59:14.256Z,71.10
2023-04-09T21:01:42.368Z,71.10
2023-04-09T21:04:10.550Z,71.10
2023-04-09T21:06:38.680Z,71.10
2023-04-09T21:09:06.716Z,71.00
2023-04-09T21:11:36.205Z,71.10
2023-04-09T21:14:06.905Z,71.00
2023-04-09T21:16:35.005Z,70.90
2023-04-09T21:19:07.268Z,70.90
2023-04-09T21:21:35.423Z,71.00
2023-04-09T21:24:03.951Z,70.80
2023-04-09T21:26:41.702Z,70.90
2023-04-09T21:29:19.738Z,70.90
2023-04-09T21:31:49.367Z,70.80
2023-04-09T21:34:17.613Z,70.80
2023-04-09T21:36:46.306Z,70.90
2023-04-09T21:39:14.480Z,70.80
2023-04-09T21:41:42.522Z,70.80
2023-04-09T21:44:10.581Z,70.80
2023-04-09T21:46:40.536Z,70.70
2023-04-09T21:49:13.056Z,70.70
2023-04-09T21:51:41.116Z,70.70
2023-04-09T21:54:09.971Z,70.70
2023-04-09T21:56:38.163Z,70.60
2023-04-09T21:59:06.250Z,70.60
2023-04-09T22:01:35.106Z,70.60
2023-04-09T22:04:05.047Z,70.60
2023-04-09T22:06:33.221Z,70.50
2023-04-09T22:09:01.827Z,70.50
2023-04-09T22:11:30.547Z,70.50
2023-04-09T22:13:58.838Z,70.50
2023-04-09T22:16:27.048Z,70.50
2023-04-09T22:19:02.295Z,70.50
2023-04-09T22:21:31.753Z,70.40
2023-04-09T22:23:59.805Z,70.40
2023-04-09T22:26:28.134Z,70.40
2023-04-09T22:28:56.484Z,70.40
2023-04-09T22:31:24.855Z,70.40
2023-04-09T22:33:52.958Z,70.40
2023-04-09T22:36:21.087Z,70.40
2023-04-09T22:38:51.862Z,70.30
2023-04-09T22:41:20.202Z,70.30
2023-04-09T22:43:48.594Z,70.30
2023-04-09T22:46:16.702Z,70.30
2023-04-09T22:48:46.558Z,70.30
2023-04-09T22:51:15.552Z,70.30
2023-04-09T22:53:43.677Z,70.30
2023-04-09T22:56:13.402Z,70.30
2023-04-09T22:58:41.654Z,70.10
2023-04-09T23:01:09.698Z,70.10
2023-04-09T23:03:37.839Z,70.10
2023-04-09T23:06:06.303Z,70.10
2023-04-09T23:08:34.352Z,70.00
2023-04-09T23:11:02.420Z,70.10
2023-04-09T23:13:31.826Z,70.10
2023-04-09T23:16:00.041Z,70.10
2023-04-09T23:18:28.154Z,70.10
2023-04-09T23:21:04.880Z,70.00
2023-04-09T23:23:32.921Z,70.10
2023-04-09T23:26:01.003Z,70.10
2023-04-09T23:28:29.073Z,70.00
2023-04-09T23:30:58.561Z,69.90
2023-04-09T23:33:26.855Z,69.90
2023-04-09T23:35:55.039Z,69.90
2023-04-09T23:38:23.401Z,69.90
2023-04-09T23:40:51.484Z,69.90
2023-04-09T23:43:19.578Z,69.80
2023-04-09T23:45:49.848Z,69.70
2023-04-09T23:48:19.283Z,69.70
2023-04-09T23:50:47.847Z,69.60
2023-04-09T23:53:16.193Z,69.80
2023-04-09T23:55:45.407Z,69.70
2023-04-09T23:58:13.926Z,69.70
